createdAt,value
2023-05-23T00:02:17.546Z,88.10
2023-05-23T00:04:45.473Z,89.40
2023-05-23T00:07:13.347Z,88.50
2023-05-23T00:09:41.214Z,89.20
2023-05-23T00:12:10.647Z,89.60
2023-05-23T00:14:40.218Z,90.40
2023-05-23T00:17:10.801Z,90.00
2023-05-23T00:19:38.882Z,90.20
2023-05-23T00:22:06.813Z,90.80
2023-05-23T00:24:34.715Z,91.70
2023-05-23T00:27:02.585Z,91.20
2023-05-23T00:29:31.766Z,91.40
2023-05-23T00:31:59.618Z,91.60
2023-05-23T00:34:27.517Z,91.60
2023-05-23T00:36:55.368Z,91.70
2023-05-23T00:39:23.206Z,92.40
2023-05-23T00:41:53.161Z,91.90
2023-05-23T00:44:21.662Z,91.40
2023-05-23T00:46:56.018Z,91.80
2023-05-23T00:49:24.534Z,91.10
2023-05-23T00:51:53.269Z,87.20
2023-05-23T00:54:25.637Z,89.40
2023-05-23T00:56:54.147Z,90.70
2023-05-23T00:59:23.688Z,91.50
2023-05-23T01:01:54.623Z,92.10
2023-05-23T01:04:26.384Z,92.20
2023-05-23T01:06:55.420Z,92.50
2023-05-23T01:09:24.749Z,92.20
2023-05-23T01:12:04.885Z,91.30
2023-05-23T01:14:36.929Z,91.00
2023-05-23T01:17:12.434Z,91.60
2023-05-23T01:19:55.162Z,92.90
2023-05-23T01:22:31.942Z,93.10
2023-05-23T01:25:11.855Z,94.40
2023-05-23T01:28:02.838Z,93.40
2023-05-23T01:30:36.178Z,92.80
2023-05-23T01:33:05.567Z,92.00
2023-05-23T01:35:34.671Z,93.60
2023-05-23T01:38:02.555Z,93.40
2023-05-23T01:40:30.809Z,93.90
2023-05-23T01:42:59.088Z,93.70
2023-05-23T01:45:30.094Z,93.20
2023-05-23T01:47:59.155Z,93.50
2023-05-23T01:50:27.980Z,93.60
2023-05-23T01:52:56.706Z,95.00
2023-05-23T01:55:26.541Z,94.80
2023-05-23T01:57:57.122Z,94.70
2023-05-23T02:00:25.581Z,94.50
2023-05-23T02:02:54.937Z,94.80
2023-05-23T02:05:22.913Z,94.50
2023-05-23T02:07:50.768Z,94.90
2023-05-23T02:10:18.759Z,94.40
2023-05-23T02:12:46.638Z,93.90
2023-05-23T02:15:14.548Z,93.70
2023-05-23T02:17:42.999Z,93.90
2023-05-23T02:20:12.858Z,94.70
2023-05-23T02:22:40.861Z,94.50
2023-05-23T02:25:09.711Z,94.30
2023-05-23T02:27:37.652Z,94.70
2023-05-23T02:30:06.434Z,95.00
2023-05-23T02:32:35.016Z,94.90
2023-05-23T02:35:02.944Z,95.70
2023-05-23T02:37:32.143Z,96.30
2023-05-23T02:40:00.004Z,96.70
2023-05-23T02:42:27.871Z,96.80
2023-05-23T02:44:55.731Z,96.60
2023-05-23T02:47:23.623Z,96.30
2023-05-23T02:49:51.516Z,96.10
2023-05-23T02:52:19.737Z,96.20
2023-05-23T02:54:48.952Z,95.90
2023-05-23T02:57:17.063Z,95.90
2023-05-23T02:59:44.903Z,96.30
2023-05-23T03:02:12.869Z,96.40
2023-05-23T03:04:41.273Z,96.40
2023-05-23T03:07:20.390Z,96.60
2023-05-23T03:09:56.817Z,97.00
2023-05-23T03:12:24.872Z,96.70
2023-05-23T03:14:52.850Z,95.80
2023-05-23T03:17:21.238Z,95.50
2023-05-23T03:19:49.243Z,95.60
2023-05-23T03:22:17.288Z,95.80
2023-05-23T03:24:45.279Z,95.60
2023-05-23T03:27:14.784Z,95.10
2023-05-23T03:29:42.776Z,95.30
2023-05-23T03:32:10.802Z,95.10
2023-05-23T03:34:38.854Z,95.30
2023-05-23T03:37:06.896Z,95.10
2023-05-23T03:39:34.937Z,95.10
2023-05-23T03:42:02.916Z,95.20
2023-05-23T03:44:32.225Z,94.90
2023-05-23T03:47:00.343Z,94.80
2023-05-23T03:49:28.342Z,94.90
2023-05-23T03:51:56.694Z,94.80
2023-05-23T03:54:24.695Z,94.60
2023-05-23T03:56:52.710Z,94.20
2023-05-23T03:59:20.759Z,94.40
2023-05-23T04:01:50.181Z,94.60
2023-05-23T04:04:18.546Z,94.50
2023-05-23T04:06:46.697Z,94.20
2023-05-23T04:09:15.240Z,94.00
2023-05-23T04:11:43.304Z,94.10
2023-05-23T04:14:11.473Z,93.80
2023-05-23T04:16:42.004Z,93.70
2023-05-23T04:19:12.554Z,93.60
2023-05-23T04:21:40.910Z,93.60
2023-05-23T04:24:09.165Z,93.50
2023-05-23T04:26:37.342Z,93.40
2023-05-23T04:29:06.270Z,93.10
2023-05-23T04:31:35.173Z,92.70
2023-05-23T04:34:03.776Z,93.30
2023-05-23T04:36:32.996Z,93.00
2023-05-23T04:39:00.918Z,92.70
2023-05-23T04:41:28.840Z,92.80
2023-05-23T04:43:58.417Z,92.20
2023-05-23T04:46:26.832Z,92.50
2023-05-23T04:48:54.955Z,92.50
2023-05-23T04:51:23.107Z,91.90
2023-05-23T04:53:53.586Z,92.30
2023-05-23T04:56:22.295Z,92.30
2023-05-23T04:58:50.274Z,92.30
2023-05-23T05:01:18.322Z,91.80
2023-05-23T05:03:47.486Z,91.70
2023-05-23T05:06:16.423Z,91.40
2023-05-23T05:08:44.464Z,91.80
2023-05-23T05:11:13.781Z,91.10
2023-05-23T05:13:41.781Z,90.70
2023-05-23T05:16:09.630Z,90.60
2023-05-23T05:18:37.868Z,90.40
2023-05-23T05:21:06.519Z,89.70
2023-05-23T05:23:34.475Z,88.20
2023-05-23T05:26:03.331Z,85.20
2023-05-23T05:28:32.635Z,83.70
2023-05-23T05:31:05.006Z,77.80
2023-05-23T05:33:36.010Z,78.30
2023-05-23T05:36:04.209Z,76.00
2023-05-23T05:38:32.082Z,76.20
2023-05-23T05:41:00.063Z,75.30
2023-05-23T05:43:27.991Z,70.00
2023-05-23T05:45:57.291Z,67.80
2023-05-23T05:48:25.215Z,72.00
2023-05-23T05:50:53.113Z,70.70
2023-05-23T05:53:20.984Z,71.30
2023-05-23T05:55:48.921Z,72.50
2023-05-23T05:58:16.789Z,72.50
2023-05-23T06:00:45.317Z,70.40
2023-05-23T06:03:14.656Z,71.00
2023-05-23T06:05:43.266Z,71.10
2023-05-23T06:08:11.426Z,72.10
2023-05-23T06:10:39.758Z,73.30
2023-05-23T06:13:08.040Z,72.10
2023-05-23T06:15:35.936Z,67.10
2023-05-23T06:18:04.235Z,70.20
2023-05-23T06:20:33.549Z,72.40
2023-05-23T06:23:01.865Z,71.80
2023-05-23T06:25:29.743Z,67.90
2023-05-23T06:27:57.614Z,68.00
2023-05-23T06:30:25.502Z,66.70
2023-05-23T06:32:53.549Z,65.20
2023-05-23T06:35:21.432Z,64.80
2023-05-23T06:37:50.699Z,63.80
2023-05-23T06:40:18.616Z,64.70
2023-05-23T06:42:46.617Z,64.70
2023-05-23T06:45:16.454Z,66.60
2023-05-23T06:47:45.657Z,66.40
2023-05-23T06:50:13.675Z,69.20
2023-05-23T06:52:42.781Z,67.80
2023-05-23T06:55:14.535Z,65.70
2023-05-23T06:57:42.481Z,66.60
2023-05-23T07:00:11.599Z,67.60
2023-05-23T07:02:39.548Z,62.50
2023-05-23T07:05:08.216Z,63.20
2023-05-23T07:07:36.131Z,64.60
2023-05-23T07:10:04.078Z,63.00
2023-05-23T07:12:34.872Z,65.80
2023-05-23T07:15:02.987Z,67.50
2023-05-23T07:17:31.457Z,64.90
2023-05-23T07:19:59.362Z,62.50
2023-05-23T07:22:27.241Z,62.20
2023-05-23T07:24:55.157Z,61.90
2023-05-23T07:27:23.128Z,64.70
2023-05-23T07:29:52.902Z,64.50
2023-05-23T07:32:20.886Z,64.50
2023-05-23T07:34:48.769Z,65.50
2023-05-23T07:37:16.730Z,64.50
2023-05-23T07:39:44.612Z,65.00
2023-05-23T07:42:12.478Z,66.10
2023-05-23T07:44:40.412Z,65.10
2023-05-23T07:47:09.783Z,66.20
2023-05-23T07:49:37.690Z,65.50
2023-05-23T07:52:06.995Z,65.20
2023-05-23T07:54:34.876Z,64.70
2023-05-23T07:57:02.729Z,62.30
2023-05-23T07:59:31.134Z,60.00
2023-05-23T08:01:59.095Z,54.20
2023-05-23T08:04:28.455Z,52.50
2023-05-23T08:09:27.404Z,45.70
2023-05-23T08:11:55.371Z,41.80
2023-05-23T08:14:23.899Z,44.40
2023-05-23T08:16:53.903Z,42.60
2023-05-23T08:19:21.939Z,42.00
2023-05-23T08:21:53.100Z,43.80
2023-05-23T08:24:21.347Z,45.00
2023-05-23T08:26:50.861Z,46.50
2023-05-23T08:29:18.912Z,48.60
2023-05-23T08:31:46.859Z,47.60
2023-05-23T08:34:15.044Z,46.70
2023-05-23T08:36:43.168Z,48.00
2023-05-23T08:39:14.086Z,48.80
2023-05-23T08:41:42.392Z,49.30
2023-05-23T08:44:10.384Z,50.70
2023-05-23T08:46:45.423Z,48.90
2023-05-23T08:49:16.158Z,50.60
2023-05-23T08:51:44.771Z,48.80
2023-05-23T08:54:15.319Z,53.50
2023-05-23T08:56:45.021Z,52.20
2023-05-23T08:59:14.015Z,51.50
2023-05-23T09:01:46.190Z,54.90
2023-05-23T09:04:14.156Z,49.10
2023-05-23T09:06:42.053Z,46.60
2023-05-23T09:09:10.071Z,49.10
2023-05-23T09:11:39.664Z,48.80
2023-05-23T09:14:08.201Z,47.00
2023-05-23T09:16:36.567Z,49.40
2023-05-23T09:19:12.020Z,50.10
2023-05-23T09:21:44.414Z,50.50
2023-05-23T09:24:12.518Z,49.60
2023-05-23T09:26:41.821Z,49.40
2023-05-23T09:29:09.716Z,49.90
2023-05-23T09:31:37.711Z,51.60
2023-05-23T09:34:06.954Z,50.50
2023-05-23T09:36:35.176Z,52.90
2023-05-23T09:39:05.647Z,50.60
2023-05-23T09:41:35.259Z,53.30
2023-05-23T09:44:10.349Z,51.80
2023-05-23T09:46:39.252Z,50.10
2023-05-23T09:49:18.383Z,49.70
2023-05-23T09:51:58.476Z,49.00
2023-05-23T09:54:26.470Z,48.90
2023-05-23T09:56:56.159Z,50.20
2023-05-23T09:59:28.874Z,50.50
2023-05-23T10:01:58.821Z,50.30
2023-05-23T10:04:29.136Z,49.30
2023-05-23T10:07:02.078Z,50.20
2023-05-23T10:09:37.346Z,51.80
2023-05-23T10:12:41.706Z,51.60
2023-05-23T10:15:14.849Z,49.40
2023-05-23T10:17:54.784Z,48.80
2023-05-23T10:20:26.364Z,50.50
2023-05-23T10:22:55.227Z,50.60
2023-05-23T10:25:23.612Z,50.70
2023-05-23T10:27:58.740Z,50.90
2023-05-23T10:30:29.352Z,50.30
2023-05-23T10:32:58.600Z,50.70
2023-05-23T10:35:39.072Z,51.00
2023-05-23T10:38:17.711Z,50.70
2023-05-23T10:40:54.413Z,49.10
2023-05-23T10:43:28.256Z,50.40
2023-05-23T10:45:57.536Z,49.00
2023-05-23T10:48:35.322Z,47.80
2023-05-23T10:51:07.692Z,49.10
2023-05-23T10:53:37.427Z,48.10
2023-05-23T10:56:09.297Z,46.40
2023-05-23T10:58:39.616Z,47.50
2023-05-23T11:01:10.056Z,48.20
2023-05-23T11:03:52.905Z,49.70
2023-05-23T11:06:33.806Z,50.90
2023-05-23T11:09:07.616Z,52.60
2023-05-23T11:12:05.807Z,53.90
2023-05-23T11:14:37.874Z,54.10
2023-05-23T11:17:18.623Z,52.70
2023-05-23T11:20:13.616Z,53.30
2023-05-23T11:22:42.427Z,56.50
2023-05-23T11:25:11.012Z,57.90
2023-05-23T11:27:40.278Z,56.90
2023-05-23T11:30:10.015Z,54.10
2023-05-23T11:32:39.353Z,55.50
2023-05-23T11:35:09.173Z,56.60
2023-05-23T11:37:38.923Z,56.00
2023-05-23T11:40:29.422Z,54.70
2023-05-23T11:42:57.689Z,53.40
2023-05-23T11:45:25.987Z,51.80
2023-05-23T11:47:55.303Z,53.00
2023-05-23T11:50:24.337Z,54.40
2023-05-23T11:52:52.537Z,52.30
2023-05-23T11:55:21.410Z,52.50
2023-05-23T11:57:49.555Z,54.00
2023-05-23T12:00:18.856Z,55.30
2023-05-23T12:02:48.937Z,56.80
2023-05-23T12:05:18.459Z,58.10
2023-05-23T12:07:48.063Z,57.90
2023-05-23T12:10:17.379Z,57.30
2023-05-23T12:12:46.275Z,57.40
2023-05-23T12:15:14.818Z,56.40
2023-05-23T12:17:46.940Z,55.70
2023-05-23T12:20:15.334Z,56.20
2023-05-23T12:22:44.760Z,58.00
2023-05-23T12:25:12.913Z,55.70
2023-05-23T12:27:44.163Z,57.40
2023-05-23T12:30:16.129Z,57.60
2023-05-23T12:32:45.887Z,57.40
2023-05-23T12:35:15.985Z,55.70
2023-05-23T12:37:46.844Z,54.90
2023-05-23T12:40:16.362Z,54.60
2023-05-23T12:42:51.527Z,55.70
2023-05-23T12:45:19.552Z,54.60
2023-05-23T12:47:47.447Z,55.80
2023-05-23T12:50:15.687Z,56.80
2023-05-23T12:52:44.958Z,57.50
2023-05-23T12:55:14.759Z,57.00
2023-05-23T12:57:42.697Z,56.00
2023-05-23T13:00:12.034Z,57.60
2023-05-23T13:02:40.414Z,57.90
2023-05-23T13:05:08.854Z,59.00
2023-05-23T13:07:37.947Z,59.60
2023-05-23T13:10:08.670Z,58.00
2023-05-23T13:12:36.954Z,56.50
2023-05-23T13:15:05.806Z,56.40
2023-05-23T13:17:33.826Z,55.80
2023-05-23T13:20:04.973Z,58.30
2023-05-23T13:22:33.369Z,61.40
2023-05-23T13:25:01.347Z,57.20
2023-05-23T13:27:30.603Z,57.00
2023-05-23T13:29:58.486Z,57.80
2023-05-23T13:32:26.758Z,56.40
2023-05-23T13:34:54.697Z,54.50
2023-05-23T13:37:22.601Z,53.60
2023-05-23T13:39:50.495Z,55.90
2023-05-23T13:42:18.357Z,54.50
2023-05-23T13:44:47.653Z,55.30
2023-05-23T13:47:16.370Z,52.40
2023-05-23T13:49:44.609Z,53.60
2023-05-23T13:52:13.198Z,54.90
2023-05-23T13:54:41.555Z,52.90
2023-05-23T13:57:09.427Z,53.30
2023-05-23T13:59:37.290Z,56.60
2023-05-23T14:02:08.130Z,50.20
2023-05-23T14:04:36.145Z,49.00
2023-05-23T14:07:04.302Z,48.20
2023-05-23T14:09:32.183Z,48.00
2023-05-23T14:12:00.136Z,49.80
2023-05-23T14:14:28.110Z,49.40
2023-05-23T14:16:55.976Z,50.10
2023-05-23T14:19:25.307Z,48.50
2023-05-23T14:21:53.198Z,51.00
2023-05-23T14:24:21.899Z,52.60
2023-05-23T14:26:50.327Z,51.60
2023-05-23T14:29:18.223Z,52.60
2023-05-23T14:31:46.138Z,54.50
2023-05-23T14:34:14.024Z,54.40
2023-05-23T14:36:43.228Z,56.30
2023-05-23T14:39:11.425Z,53.70
2023-05-23T14:41:39.346Z,54.00
2023-05-23T14:44:07.374Z,55.20
2023-05-23T14:46:35.319Z,54.60
2023-05-23T14:49:03.265Z,54.80
2023-05-23T14:51:44.063Z,55.60
2023-05-23T14:54:16.216Z,60.30
2023-05-23T14:56:44.153Z,60.40
2023-05-23T14:59:12.160Z,59.10
2023-05-23T15:01:40.861Z,58.60
2023-05-23T15:04:10.118Z,53.80
2023-05-23T15:06:39.065Z,53.30
2023-05-23T15:09:07.571Z,52.30
2023-05-23T15:11:38.652Z,52.40
2023-05-23T15:14:06.656Z,51.60
2023-05-23T15:16:36.718Z,55.60
2023-05-23T15:19:06.067Z,54.30
2023-05-23T15:21:34.033Z,57.30
2023-05-23T15:24:01.989Z,56.00
2023-05-23T15:26:30.085Z,52.50
2023-05-23T15:28:59.267Z,54.10
2023-05-23T15:31:27.913Z,53.20
2023-05-23T15:33:55.799Z,55.30
2023-05-23T15:36:23.721Z,55.20
2023-05-23T15:38:51.575Z,54.40
2023-05-23T15:41:19.526Z,55.20
2023-05-23T15:43:47.359Z,55.00
2023-05-23T15:46:16.713Z,54.00
2023-05-23T15:48:44.614Z,50.80
2023-05-23T15:51:12.583Z,54.70
2023-05-23T15:53:59.103Z,52.80
2023-05-23T15:56:28.297Z,52.40
2023-05-23T15:58:56.690Z,51.70
2023-05-23T16:01:26.074Z,51.70
2023-05-23T16:03:53.985Z,51.80
2023-05-23T16:06:21.896Z,51.80
2023-05-23T16:08:49.790Z,54.10
2023-05-23T16:11:17.893Z,52.80
2023-05-23T16:13:45.772Z,52.30
2023-05-23T16:16:13.668Z,51.90
2023-05-23T16:18:42.877Z,51.40
2023-05-23T16:21:10.928Z,53.10
2023-05-23T16:23:38.805Z,50.00
2023-05-23T16:26:06.701Z,52.20
2023-05-23T16:28:34.566Z,51.50
2023-05-23T16:31:02.422Z,55.40
2023-05-23T16:33:30.417Z,54.20
2023-05-23T16:35:59.816Z,52.50
2023-05-23T16:38:27.709Z,52.80
2023-05-23T16:40:55.609Z,52.10
2023-05-23T16:43:23.580Z,52.20
2023-05-23T16:45:51.721Z,50.70
2023-05-23T16:48:20.759Z,52.30
2023-05-23T16:50:48.686Z,53.70
2023-05-23T16:53:17.968Z,54.10
2023-05-23T16:55:47.331Z,53.70
2023-05-23T16:58:15.242Z,55.30
2023-05-23T17:00:43.152Z,55.90
2023-05-23T17:03:11.347Z,55.40
2023-05-23T17:05:40.197Z,57.20
2023-05-23T17:08:08.588Z,55.90
2023-05-23T17:10:38.000Z,55.00
2023-05-23T17:13:05.897Z,54.90
2023-05-23T17:15:33.843Z,55.50
2023-05-23T17:18:01.777Z,55.10
2023-05-23T17:20:29.800Z,54.90
2023-05-23T17:22:57.690Z,53.20
2023-05-23T17:25:25.594Z,51.40
2023-05-23T17:27:55.791Z,50.10
2023-05-23T17:30:23.674Z,49.40
2023-05-23T17:32:51.585Z,49.70
2023-05-23T17:35:19.545Z,47.80
2023-05-23T17:37:47.444Z,49.30
2023-05-23T17:40:16.431Z,49.10
2023-05-23T17:42:44.873Z,49.80
2023-05-23T17:45:14.435Z,48.70
2023-05-23T17:47:42.650Z,47.60
2023-05-23T17:50:12.080Z,49.80
2023-05-23T17:52:40.048Z,50.30
2023-05-23T17:55:08.621Z,50.80
2023-05-23T17:57:36.513Z,50.40
2023-05-23T18:00:04.846Z,49.50
2023-05-23T18:02:34.121Z,49.00
2023-05-23T18:05:02.075Z,48.90
2023-05-23T18:07:30.018Z,46.20
2023-05-23T18:09:59.674Z,45.70
2023-05-23T18:12:27.740Z,45.30
2023-05-23T18:14:55.860Z,47.20
2023-05-23T18:17:24.799Z,46.90
2023-05-23T18:19:54.112Z,47.90
2023-05-23T18:22:22.051Z,45.60
2023-05-23T18:24:49.942Z,45.50
2023-05-23T18:27:17.885Z,46.40
2023-05-23T18:29:45.910Z,46.60
2023-05-23T18:32:14.549Z,46.50
2023-05-23T18:34:42.726Z,48.40
2023-05-23T18:37:12.004Z,47.90
2023-05-23T18:39:39.987Z,48.50
2023-05-23T18:42:08.092Z,48.80
2023-05-23T18:44:36.021Z,49.50
2023-05-23T18:47:03.963Z,49.40
2023-05-23T18:49:31.962Z,51.20
2023-05-23T18:51:59.950Z,52.60
2023-05-23T18:54:29.180Z,52.80
2023-05-23T18:56:57.076Z,52.30
2023-05-23T18:59:24.938Z,51.50
2023-05-23T19:01:52.878Z,51.20
2023-05-23T19:04:21.319Z,51.00
2023-05-23T19:06:49.515Z,51.80
2023-05-23T19:09:17.443Z,51.90
2023-05-23T19:11:46.708Z,53.10
2023-05-23T19:14:14.745Z,55.00
2023-05-23T19:16:42.723Z,54.20
2023-05-23T19:19:11.316Z,55.40
2023-05-23T19:21:39.273Z,53.60
2023-05-23T19:24:08.475Z,53.50
2023-05-23T19:26:37.167Z,54.60
2023-05-23T19:29:06.562Z,53.40
2023-05-23T19:31:34.692Z,53.90
2023-05-23T19:34:02.795Z,54.40
2023-05-23T19:36:30.724Z,56.40
2023-05-23T19:38:58.611Z,57.00
2023-05-23T19:41:26.751Z,58.50
2023-05-23T19:43:54.663Z,59.90
2023-05-23T19:46:23.975Z,60.20
2023-05-23T19:48:52.117Z,61.70
2023-05-23T19:51:20.089Z,61.60
2023-05-23T19:53:47.976Z,62.70
2023-05-23T19:56:16.067Z,63.40
2023-05-23T19:58:44.011Z,63.70
2023-05-23T20:01:12.481Z,65.60
2023-05-23T20:03:41.864Z,67.70
2023-05-23T20:06:10.120Z,67.10
2023-05-23T20:08:38.036Z,68.70
2023-05-23T20:11:06.243Z,68.20
2023-05-23T20:13:34.130Z,70.20
2023-05-23T20:16:02.435Z,71.30
2023-05-23T20:18:30.363Z,73.80
2023-05-23T20:20:59.589Z,74.70
2023-05-23T20:23:28.498Z,71.50
2023-05-23T20:25:56.706Z,71.30
2023-05-23T20:28:24.578Z,71.10
2023-05-23T20:30:52.527Z,71.30
2023-05-23T20:33:21.789Z,70.90
2023-05-23T20:35:49.934Z,73.30
